Time;durP1;ratioP1;P1;durP2;ratioP2;P2;SDS_P1;SDS_P2;PMS_P1;PMS_P2;Temp;Humidity;BMP_temperature;BMP_pressure;BME280_temperature;BME280_humidity;BME280_pressure;Samples;Min_cycle;Max_cycle;Signal;HPM_P1;HPM_P2
2022/09/14 00:00:06;;;;;;;5.38;1.60;;;14.00;99.90;;;;;;5066586;28;20048;-70
2022/09/14 00:02:32;;;;;;;8.98;1.60;;;14.00;99.90;;;;;;5048905;28;20091;-70
2022/09/14 00:04:57;;;;;;;4.22;1.27;;;14.00;99.90;;;;;;5067691;28;20040;-69
2022/09/14 00:07:23;;;;;;;9.75;1.95;;;14.00;99.90;;;;;;5049260;28;20056;-70
2022/09/14 00:09:50;;;;;;;5.95;1.50;;;14.00;99.90;;;;;;5066567;28;20044;-69
2022/09/14 00:12:16;;;;;;;7.47;1.60;;;14.00;99.90;;;;;;5065634;28;20057;-70
2022/09/14 00:14:42;;;;;;;5.25;1.38;;;14.00;99.90;;;;;;5067661;28;20485;-70
2022/09/14 00:17:08;;;;;;;5.30;1.40;;;14.00;99.90;;;;;;5067963;28;20090;-69
2022/09/14 00:19:33;;;;;;;6.63;1.45;;;14.00;99.90;;;;;;5067436;28;20048;-70
2022/09/14 00:21:59;;;;;;;2.92;1.15;;;14.10;99.90;;;;;;5047131;28;20387;-70
2022/09/14 00:24:29;;;;;;;4.57;1.50;;;14.10;99.90;;;;;;5067929;28;20044;-69
2022/09/14 00:26:55;;;;;;;3.63;1.40;;;14.10;99.90;;;;;;5047763;28;20543;-69
2022/09/14 00:29:22;;;;;;;3.38;1.20;;;14.10;99.90;;;;;;5065296;28;20406;-69
2022/09/14 00:31:48;;;;;;;5.28;1.10;;;14.10;99.90;;;;;;5059717;28;20074;-70
2022/09/14 00:34:16;;;;;;;6.30;1.40;;;14.00;99.90;;;;;;5062401;28;20497;-70
2022/09/14 00:36:47;;;;;;;1.95;0.95;;;14.10;99.90;;;;;;5058454;28;20041;-70
2022/09/14 00:39:16;;;;;;;5.47;1.30;;;14.10;99.90;;;;;;5066177;28;20044;-70
2022/09/14 00:41:44;;;;;;;4.40;1.23;;;14.10;99.90;;;;;;5047206;28;20093;-69
2022/09/14 00:44:09;;;;;;;4.15;1.50;;;14.10;99.90;;;;;;5061241;28;20036;-70
2022/09/14 00:46:57;;;;;;;7.53;1.35;;;14.10;99.90;;;;;;5057403;28;20060;-69
2022/09/14 00:49:31;;;;;;;8.05;1.52;;;14.00;99.90;;;;;;5061367;28;20416;-69
2022/09/14 00:52:00;;;;;;;5.38;1.23;;;14.00;99.90;;;;;;5062791;28;20120;-69
2022/09/14 00:54:26;;;;;;;6.82;1.45;;;14.00;99.90;;;;;;5064599;28;20041;-69
2022/09/14 00:56:53;;;;;;;7.05;1.67;;;14.00;99.90;;;;;;5063497;28;20043;-69
2022/09/14 00:59:22;;;;;;;7.00;1.60;;;14.00;99.90;;;;;;5065309;28;20147;-69
2022/09/14 01:01:49;;;;;;;7.03;1.90;;;14.00;99.90;;;;;;5060895;28;20431;-69
2022/09/14 01:04:16;;;;;;;7.97;1.83;;;13.90;99.90;;;;;;5064005;28;20047;-69
2022/09/14 01:06:57;;;;;;;6.15;1.80;;;13.90;99.90;;;;;;5063251;28;20041;-69
2022/09/14 01:09:25;;;;;;;6.50;1.52;;;13.90;99.90;;;;;;5065575;28;20041;-69
2022/09/14 01:12:00;;;;;;;4.15;1.50;;;13.90;99.90;;;;;;5078695;28;20136;-69
2022/09/14 01:14:45;;;;;;;7.75;1.65;;;13.80;99.90;;;;;;5065093;28;20047;-68
2022/09/14 01:17:19;;;;;;;6.60;2.10;;;13.80;99.90;;;;;;5062494;28;20080;-69
2022/09/14 01:20:12;;;;;;;7.05;2.10;;;13.80;99.90;;;;;;5061057;28;20520;-69
2022/09/14 01:22:46;;;;;;;5.35;1.70;;;13.70;99.90;;;;;;5064018;28;20137;-69
2022/09/14 01:25:14;;;;;;;7.60;2.33;;;13.90;99.90;;;;;;5058302;28;20097;-69
2022/09/14 01:27:43;;;;;;;8.90;2.90;;;13.70;99.90;;;;;;5063533;28;20041;-69
2022/09/14 01:30:31;;;;;;;9.20;2.55;;;13.70;99.90;;;;;;5063274;28;20052;-69
2022/09/14 01:33:20;;;;;;;8.75;2.30;;;13.70;99.90;;;;;;5062150;28;20084;-69
2022/09/14 01:35:54;;;;;;;5.63;2.00;;;13.70;99.90;;;;;;5060706;28;20076;-69
2022/09/14 01:38:25;;;;;;;5.28;1.75;;;13.70;99.90;;;;;;5056429;28;20266;-69
2022/09/14 01:40:51;;;;;;;8.02;2.25;;;13.70;99.90;;;;;;5063533;28;20040;-68
2022/09/14 01:43:36;;;;;;;6.03;1.85;;;13.70;99.90;;;;;;5061963;28;20080;-69
2022/09/14 01:46:10;;;;;;;5.15;1.60;;;13.70;99.90;;;;;;5061585;28;20048;-69
2022/09/14 01:48:51;;;;;;;6.97;1.75;;;13.70;99.90;;;;;;5063466;28;20511;-69
2022/09/14 01:51:26;;;;;;;5.88;1.98;;;13.70;99.90;;;;;;5062054;28;20045;-69
2022/09/14 01:54:07;;;;;;;6.00;1.90;;;13.70;99.90;;;;;;5063093;28;20036;-69
2022/09/14 01:56:40;;;;;;;6.45;2.28;;;13.70;99.90;;;;;;5065935;28;20051;-69
2022/09/14 01:59:17;;;;;;;7.03;2.80;;;13.80;99.90;;;;;;5063821;28;20047;-69
2022/09/14 02:01:52;;;;;;;5.05;2.17;;;13.80;99.90;;;;;;5062604;28;20080;-70
2022/09/14 02:04:45;;;;;;;7.65;2.25;;;13.80;99.90;;;;;;5063726;28;20048;-70
2022/09/14 02:07:11;;;;;;;7.25;2.35;;;13.80;99.90;;;;;;5056758;28;20383;-69
2022/09/14 02:09:38;;;;;;;9.30;2.50;;;13.70;99.90;;;;;;5065244;28;20055;-69
2022/09/14 02:12:04;;;;;;;7.90;2.75;;;13.80;99.90;;;;;;5060489;28;20048;-70
2022/09/14 02:14:30;;;;;;;11.00;2.63;;;13.80;99.90;;;;;;5060685;28;20374;-69
2022/09/14 02:16:56;;;;;;;4.93;2.40;;;13.80;99.90;;;;;;5061070;28;20063;-69
2022/09/14 02:19:24;;;;;;;10.93;3.25;;;13.80;99.90;;;;;;5064184;28;20509;-69
2022/09/14 02:21:50;;;;;;;5.88;2.38;;;13.80;99.90;;;;;;5063116;28;20123;-69
2022/09/14 02:24:17;;;;;;;9.85;2.20;;;13.80;99.90;;;;;;5065231;28;20490;-69
2022/09/14 02:26:43;;;;;;;6.15;2.17;;;13.80;99.90;;;;;;5065688;28;20044;-70
2022/09/14 02:29:09;;;;;;;9.32;2.35;;;13.80;99.90;;;;;;5063074;28;20043;-69
2022/09/14 02:32:11;;;;;;;5.43;2.53;;;13.90;99.90;;;;;;5062004;28;20036;-69
2022/09/14 02:34:55;;;;;;;8.57;2.85;;;13.90;99.90;;;;;;5063929;28;20049;-69
2022/09/14 02:37:58;;;;;;;6.78;2.65;;;13.90;99.90;;;;;;5067133;28;20044;-70
2022/09/14 02:40:47;;;;;;;7.05;2.70;;;13.90;99.90;;;;;;5058278;28;20193;-69
2022/09/14 02:43:22;;;;;;;10.30;3.10;;;13.90;99.90;;;;;;5055279;28;20123;-69
2022/09/14 02:45:57;;;;;;;5.93;2.40;;;13.90;99.90;;;;;;5061635;28;20064;-69
2022/09/14 02:48:41;;;;;;;6.22;2.78;;;13.90;99.90;;;;;;5045748;28;20455;-70
2022/09/14 02:51:21;;;;;;;7.70;2.30;;;13.90;99.90;;;;;;5061417;28;20072;-70
2022/09/14 02:53:59;;;;;;;9.10;2.88;;;13.90;99.90;;;;;;5042182;28;20548;-70
2022/09/14 02:56:27;;;;;;;8.50;2.47;;;13.90;99.90;;;;;;5063014;28;20059;-69
2022/09/14 02:58:52;;;;;;;9.52;2.63;;;13.90;99.90;;;;;;5062580;28;20048;-70
2022/09/14 03:01:20;;;;;;;7.32;2.10;;;13.90;99.90;;;;;;5064717;28;20052;-69
2022/09/14 03:03:46;;;;;;;6.57;2.83;;;14.00;99.90;;;;;;5061855;28;20425;-70
2022/09/14 03:06:12;;;;;;;13.18;2.75;;;13.90;99.90;;;;;;5064966;28;20028;-69
2022/09/14 03:08:37;;;;;;;7.60;3.28;;;13.90;99.90;;;;;;5061810;28;20553;-69
2022/09/14 03:11:05;;;;;;;10.35;2.58;;;13.90;99.90;;;;;;5044975;28;20386;-69
2022/09/14 03:13:30;;;;;;;8.48;2.80;;;14.00;99.90;;;;;;5063341;28;20044;-70
2022/09/14 03:15:56;;;;;;;8.35;2.60;;;14.00;99.90;;;;;;5056178;28;20044;-69
2022/09/14 03:18:22;;;;;;;7.07;2.65;;;14.00;99.90;;;;;;5058373;28;20087;-69
2022/09/14 03:20:48;;;;;;;8.68;2.60;;;14.00;99.90;;;;;;5062775;28;20049;-69
2022/09/14 03:23:15;;;;;;;6.07;2.53;;;14.00;99.90;;;;;;5065977;28;20099;-69
2022/09/14 03:25:43;;;;;;;5.72;2.45;;;14.00;99.90;;;;;;5067293;28;20053;-69
2022/09/14 03:28:10;;;;;;;6.47;2.55;;;14.00;99.90;;;;;;5064239;28;20397;-69
2022/09/14 03:30:36;;;;;;;6.55;2.50;;;14.00;99.90;;;;;;5062615;28;20068;-69
2022/09/14 03:33:02;;;;;;;6.70;2.22;;;14.00;99.90;;;;;;5070053;28;20072;-69
2022/09/14 03:35:30;;;;;;;9.57;2.40;;;14.00;99.90;;;;;;5060855;28;20147;-69
2022/09/14 03:37:57;;;;;;;8.55;2.72;;;14.00;99.90;;;;;;5061128;28;20420;-69
2022/09/14 03:40:24;;;;;;;6.85;2.03;;;14.00;99.90;;;;;;5041747;28;20580;-69
2022/09/14 03:42:51;;;;;;;7.80;2.40;;;14.00;99.90;;;;;;5056511;28;20040;-69
2022/09/14 03:45:18;;;;;;;8.85;2.20;;;14.00;99.90;;;;;;5075751;28;20044;-69
2022/09/14 03:47:45;;;;;;;5.28;2.08;;;14.00;99.90;;;;;;5062341;28;20052;-69
2022/09/14 03:50:12;;;;;;;6.03;2.50;;;14.00;99.90;;;;;;5062945;28;20458;-70
2022/09/14 03:52:38;;;;;;;6.00;2.15;;;14.00;99.90;;;;;;5060395;28;20044;-69
2022/09/14 03:55:05;;;;;;;4.78;2.00;;;14.20;99.90;;;;;;5056528;28;20041;-69
2022/09/14 03:57:31;;;;;;;5.28;2.13;;;14.00;99.90;;;;;;5060519;28;20047;-69
2022/09/14 03:59:58;;;;;;;7.82;2.28;;;14.10;99.90;;;;;;5065945;28;20405;-69
2022/09/14 04:02:24;;;;;;;5.88;2.40;;;14.00;99.90;;;;;;5062883;28;20051;-69
2022/09/14 04:04:49;;;;;;;8.13;2.60;;;14.10;99.90;;;;;;5050091;28;20121;-69
2022/09/14 04:07:16;;;;;;;5.90;2.42;;;14.00;99.90;;;;;;5063169;28;20086;-69
2022/09/14 04:09:42;;;;;;;7.82;2.42;;;14.10;99.90;;;;;;5049711;28;20047;-69
2022/09/14 04:12:08;;;;;;;7.53;2.55;;;14.00;99.90;;;;;;5065000;28;20056;-69
2022/09/14 04:14:34;;;;;;;6.70;2.30;;;14.00;99.90;;;;;;5064395;28;20048;-69
2022/09/14 04:16:59;;;;;;;6.50;2.22;;;14.00;99.90;;;;;;5066565;28;20053;-69
2022/09/14 04:19:25;;;;;;;6.95;2.13;;;14.20;99.90;;;;;;5065410;28;20123;-68
2022/09/14 04:21:51;;;;;;;6.00;2.85;;;14.10;99.90;;;;;;5076802;28;20111;-69
2022/09/14 04:24:17;;;;;;;6.30;2.80;;;14.10;99.90;;;;;;5062770;28;20060;-69
2022/09/14 04:26:44;;;;;;;6.18;2.53;;;14.10;99.90;;;;;;5066183;28;20112;-69
2022/09/14 04:29:11;;;;;;;8.32;2.53;;;14.10;99.90;;;;;;5064467;28;20467;-69
2022/09/14 04:31:37;;;;;;;6.72;2.25;;;14.10;99.90;;;;;;5058189;28;20044;-69
2022/09/14 04:34:03;;;;;;;7.72;2.10;;;14.10;99.90;;;;;;5059787;28;20110;-68
2022/09/14 04:36:29;;;;;;;7.32;2.60;;;14.10;99.90;;;;;;5064610;28;20072;-69
2022/09/14 04:39:01;;;;;;;7.53;2.25;;;14.10;99.90;;;;;;5065753;28;20048;-68
2022/09/14 04:41:28;;;;;;;8.63;2.80;;;14.10;99.90;;;;;;5055690;28;20643;-69
2022/09/14 04:43:55;;;;;;;6.43;3.00;;;14.10;99.90;;;;;;5061935;28;20040;-69
2022/09/14 04:46:23;;;;;;;7.03;2.75;;;14.10;99.90;;;;;;5059461;28;20041;-69
2022/09/14 04:48:50;;;;;;;5.32;2.30;;;14.10;99.90;;;;;;5061907;28;20458;-69
2022/09/14 04:51:19;;;;;;;5.47;2.35;;;14.10;99.90;;;;;;5055721;28;20050;-69
2022/09/14 04:53:48;;;;;;;6.68;2.25;;;14.10;99.90;;;;;;5053312;28;20048;-69
2022/09/14 04:56:14;;;;;;;8.43;2.85;;;14.10;99.90;;;;;;5053232;28;20055;-69
2022/09/14 04:58:44;;;;;;;8.10;2.85;;;14.10;99.90;;;;;;5052047;28;20033;-69
2022/09/14 05:01:18;;;;;;;5.45;2.33;;;14.10;99.90;;;;;;5037818;28;20124;-69
2022/09/14 05:03:44;;;;;;;6.65;2.30;;;14.10;99.90;;;;;;5042809;28;20040;-69
2022/09/14 05:06:15;;;;;;;8.55;2.60;;;14.10;99.90;;;;;;5053139;28;20059;-69
2022/09/14 05:08:42;;;;;;;6.82;2.40;;;14.10;99.90;;;;;;5068632;28;20055;-68
2022/09/14 05:11:11;;;;;;;9.13;2.72;;;14.10;99.90;;;;;;5050958;28;20052;-69
2022/09/14 05:13:37;;;;;;;7.05;2.50;;;14.10;99.90;;;;;;5072793;28;20048;-69
2022/09/14 05:16:08;;;;;;;5.88;2.33;;;14.10;99.90;;;;;;5058626;28;20051;-69
2022/09/14 05:18:34;;;;;;;9.00;2.80;;;14.10;99.90;;;;;;5052695;28;20060;-69
2022/09/14 05:21:02;;;;;;;6.43;2.58;;;14.20;99.90;;;;;;5048463;28;20044;-69
2022/09/14 05:23:28;;;;;;;6.45;2.80;;;14.10;99.90;;;;;;5048761;28;20048;-69
2022/09/14 05:25:54;;;;;;;6.95;2.42;;;14.10;99.90;;;;;;5053616;28;20048;-69
2022/09/14 05:28:19;;;;;;;7.30;3.05;;;14.10;99.90;;;;;;5050398;28;20513;-69
2022/09/14 05:30:45;;;;;;;5.63;2.35;;;14.10;99.90;;;;;;5050860;28;20044;-69
2022/09/14 05:33:11;;;;;;;8.02;2.92;;;14.10;99.90;;;;;;5050569;28;20040;-69
2022/09/14 05:35:36;;;;;;;4.53;2.35;;;14.10;99.90;;;;;;5051556;28;20080;-69
2022/09/14 05:38:02;;;;;;;5.45;2.47;;;14.10;99.90;;;;;;5047792;28;20032;-70
2022/09/14 05:40:28;;;;;;;7.20;2.38;;;14.10;99.90;;;;;;5053779;28;20040;-69
2022/09/14 05:42:53;;;;;;;8.52;2.72;;;14.10;99.90;;;;;;5047269;28;20045;-69
2022/09/14 05:45:19;;;;;;;6.50;2.17;;;14.10;99.90;;;;;;5036369;28;20044;-69
2022/09/14 05:47:45;;;;;;;7.00;2.70;;;14.20;99.90;;;;;;5056598;28;20113;-70
2022/09/14 05:50:11;;;;;;;5.25;2.60;;;14.10;99.90;;;;;;5056239;28;20421;-69
2022/09/14 05:52:36;;;;;;;6.78;2.67;;;14.10;99.90;;;;;;5059959;28;20450;-69
2022/09/14 05:55:03;;;;;;;5.10;2.33;;;14.20;99.90;;;;;;5059331;28;20052;-69
2022/09/14 05:57:29;;;;;;;6.22;2.42;;;14.20;99.90;;;;;;5074639;28;20052;-69
2022/09/14 05:59:55;;;;;;;5.97;2.40;;;14.20;99.90;;;;;;5062013;28;20044;-69
2022/09/14 06:02:21;;;;;;;6.18;2.35;;;14.20;99.90;;;;;;5056667;28;20048;-69
2022/09/14 06:04:46;;;;;;;5.47;2.33;;;14.20;99.90;;;;;;5061767;28;20086;-69
2022/09/14 06:07:12;;;;;;;9.85;3.42;;;14.10;99.90;;;;;;5059039;28;20405;-69
2022/09/14 06:09:38;;;;;;;8.52;3.30;;;14.20;99.90;;;;;;5061243;28;20040;-69
2022/09/14 06:12:04;;;;;;;9.52;3.22;;;14.20;99.90;;;;;;5061547;28;20044;-69
2022/09/14 06:14:29;;;;;;;6.30;2.47;;;14.20;99.90;;;;;;5059047;28;20037;-70
2022/09/14 06:16:56;;;;;;;6.28;2.55;;;14.30;99.90;;;;;;5040734;28;20436;-70
2022/09/14 06:19:22;;;;;;;8.13;2.65;;;14.30;99.90;;;;;;5063185;28;20651;-69
2022/09/14 06:21:47;;;;;;;7.90;3.17;;;14.30;99.90;;;;;;5059675;28;20052;-69
2022/09/14 06:24:13;;;;;;;7.20;2.80;;;14.30;99.90;;;;;;5064897;28;20052;-69
2022/09/14 06:26:39;;;;;;;7.50;2.60;;;14.30;99.90;;;;;;5066455;28;20144;-70
2022/09/14 06:29:05;;;;;;;5.82;2.70;;;14.40;99.90;;;;;;5061669;28;20034;-69
2022/09/14 06:31:31;;;;;;;8.85;2.80;;;14.40;99.90;;;;;;5060712;28;20509;-69
2022/09/14 06:34:01;;;;;;;6.05;2.42;;;14.40;99.90;;;;;;5061469;28;20043;-69
2022/09/14 06:36:31;;;;;;;8.02;2.38;;;14.40;99.90;;;;;;5046405;28;20045;-69
2022/09/14 06:38:58;;;;;;;8.07;2.63;;;14.50;99.90;;;;;;5062900;28;20044;-69
2022/09/14 06:41:29;;;;;;;7.47;2.20;;;14.50;99.90;;;;;;5065895;28;20044;-69
2022/09/14 06:43:56;;;;;;;7.70;2.17;;;14.50;99.90;;;;;;5060412;28;20037;-69
2022/09/14 06:46:25;;;;;;;5.70;1.88;;;14.50;99.90;;;;;;5076877;28;20051;-69
2022/09/14 06:49:07;;;;;;;7.38;2.30;;;14.60;99.90;;;;;;5065904;28;20044;-69
2022/09/14 06:51:41;;;;;;;6.28;2.17;;;14.60;99.90;;;;;;5061078;28;20813;-69
2022/09/14 06:54:09;;;;;;;7.03;2.13;;;14.60;99.90;;;;;;5066406;28;20438;-69
2022/09/14 06:56:37;;;;;;;7.22;2.00;;;14.80;99.90;;;;;;5065549;28;20421;-69
2022/09/14 06:59:04;;;;;;;8.32;1.90;;;14.70;99.90;;;;;;5065659;28;20052;-69
2022/09/14 07:01:30;;;;;;;6.85;2.10;;;14.70;99.90;;;;;;5053825;28;21675;-69
2022/09/14 07:03:57;;;;;;;6.53;2.00;;;14.80;99.90;;;;;;5063953;28;20505;-69
2022/09/14 07:06:25;;;;;;;6.55;2.10;;;14.90;99.90;;;;;;5066516;28;20033;-68
2022/09/14 07:08:51;;;;;;;6.78;1.70;;;14.90;99.90;;;;;;5066245;28;20102;-68
2022/09/14 07:11:20;;;;;;;10.68;2.60;;;14.90;99.90;;;;;;5048072;28;20807;-70
2022/09/14 07:13:46;;;;;;;12.05;1.85;;;15.00;99.90;;;;;;5067239;28;20036;-70
2022/09/14 07:16:13;;;;;;;8.63;2.13;;;15.00;99.90;;;;;;5064778;28;21123;-69
2022/09/14 07:18:39;;;;;;;8.43;1.77;;;15.10;99.90;;;;;;5064390;28;20418;-70
2022/09/14 07:21:06;;;;;;;6.22;1.48;;;15.20;99.90;;;;;;5061699;28;20051;-70
2022/09/14 07:23:33;;;;;;;5.88;1.55;;;15.10;99.90;;;;;;5061211;28;20040;-69
2022/09/14 07:26:06;;;;;;;7.65;1.60;;;15.20;99.90;;;;;;5059867;28;20033;-69
2022/09/14 07:28:32;;;;;;;5.28;1.63;;;15.20;99.90;;;;;;5065567;28;20459;-70
2022/09/14 07:30:58;;;;;;;9.00;1.70;;;15.20;99.90;;;;;;5063462;28;20060;-69
2022/09/14 07:33:24;;;;;;;7.22;1.50;;;15.30;99.90;;;;;;5049428;28;20044;-69
2022/09/14 07:35:51;;;;;;;5.53;1.30;;;15.30;99.90;;;;;;5050107;28;20047;-70
2022/09/14 07:38:17;;;;;;;6.22;1.10;;;15.30;99.90;;;;;;5064627;28;20048;-70
2022/09/14 07:40:43;;;;;;;9.05;1.42;;;15.30;99.90;;;;;;5062692;28;20048;-70
2022/09/14 07:43:09;;;;;;;6.82;1.38;;;15.40;99.90;;;;;;5068104;28;20044;-70
2022/09/14 07:45:36;;;;;;;6.03;1.42;;;15.40;99.90;;;;;;5066642;28;20198;-70
2022/09/14 07:48:02;;;;;;;9.60;1.25;;;15.50;99.90;;;;;;5065901;28;20040;-70
2022/09/14 07:50:28;;;;;;;6.47;1.17;;;15.60;99.90;;;;;;5065578;28;20185;-69
2022/09/14 07:52:54;;;;;;;6.63;1.90;;;15.70;99.90;;;;;;5063173;28;20086;-70
2022/09/14 07:55:19;;;;;;;4.82;1.55;;;15.70;99.90;;;;;;5065095;28;20040;-70
2022/09/14 07:57:45;;;;;;;7.45;1.50;;;15.80;99.90;;;;;;5066979;28;20683;-69
2022/09/14 08:00:13;;;;;;;6.38;1.50;;;15.90;99.90;;;;;;5066516;28;20040;-70
2022/09/14 08:02:39;;;;;;;9.27;1.77;;;16.00;99.90;;;;;;5066471;28;20044;-70
2022/09/14 08:05:05;;;;;;;10.43;1.90;;;16.00;99.90;;;;;;5065340;28;20036;-69
2022/09/14 08:07:31;;;;;;;6.70;1.40;;;16.10;99.90;;;;;;5063004;28;20508;-69
2022/09/14 08:09:57;;;;;;;8.55;1.08;;;16.10;99.90;;;;;;5050017;28;20089;-70
2022/09/14 08:12:23;;;;;;;8.38;1.42;;;16.20;99.90;;;;;;5064694;28;20129;-70
2022/09/14 08:14:51;;;;;;;4.00;1.20;;;16.20;99.90;;;;;;5067726;28;20529;-69
2022/09/14 08:17:16;;;;;;;9.30;1.77;;;16.20;99.90;;;;;;5067574;28;20063;-70
2022/09/14 08:19:42;;;;;;;7.43;1.33;;;16.30;99.90;;;;;;5065774;28;20536;-70
2022/09/14 08:22:08;;;;;;;9.50;1.40;;;16.30;99.90;;;;;;5065625;28;20044;-70
2022/09/14 08:24:34;;;;;;;7.38;1.10;;;16.30;99.90;;;;;;5067652;28;20060;-70
2022/09/14 08:27:00;;;;;;;6.97;1.25;;;16.40;99.90;;;;;;5065932;28;20129;-70
2022/09/14 08:29:26;;;;;;;4.60;1.10;;;16.40;99.90;;;;;;5067270;28;20710;-71
2022/09/14 08:31:52;;;;;;;7.88;1.55;;;16.50;99.90;;;;;;5067142;28;20055;-70
2022/09/14 08:34:18;;;;;;;8.48;1.65;;;16.60;99.90;;;;;;5065041;28;20048;-70
2022/09/14 08:36:46;;;;;;;9.68;1.25;;;16.60;99.90;;;;;;5048987;28;20068;-70
2022/09/14 08:39:14;;;;;;;7.72;1.38;;;16.80;99.90;;;;;;5048869;28;20059;-70
2022/09/14 08:41:49;;;;;;;4.43;1.25;;;16.80;99.90;;;;;;5065008;28;20041;-70
2022/09/14 08:44:26;;;;;;;13.90;1.50;;;17.00;99.90;;;;;;5065226;28;20118;-70
2022/09/14 08:47:04;;;;;;;9.65;1.38;;;17.10;99.90;;;;;;5046141;28;20135;-70
2022/09/14 08:49:42;;;;;;;6.47;1.20;;;17.20;99.90;;;;;;5065504;28;20074;-70
2022/09/14 08:52:28;;;;;;;10.18;1.27;;;17.30;99.90;;;;;;5064564;28;20464;-70
2022/09/14 08:54:56;;;;;;;7.53;1.10;;;17.30;99.90;;;;;;5046665;28;20063;-70
2022/09/14 08:57:32;;;;;;;10.30;1.60;;;17.40;99.90;;;;;;5066562;28;20399;-70
2022/09/14 09:00:12;;;;;;;8.68;1.33;;;17.50;99.90;;;;;;5065789;28;20052;-69
2022/09/14 09:02:43;;;;;;;5.55;1.02;;;17.60;99.90;;;;;;5065613;28;20048;-70
2022/09/14 09:05:25;;;;;;;8.02;1.33;;;17.70;99.90;;;;;;5047433;28;20051;-70
2022/09/14 09:08:06;;;;;;;4.55;0.80;;;17.80;99.90;;;;;;5065915;28;20037;-70
2022/09/14 09:10:34;;;;;;;9.40;0.90;;;17.90;99.90;;;;;;5063908;28;20121;-70
2022/09/14 09:13:03;;;;;;;10.27;1.42;;;17.90;99.90;;;;;;5066038;28;20052;-70
2022/09/14 09:15:43;;;;;;;7.22;0.95;;;17.90;99.90;;;;;;5064699;28;20040;-70
2022/09/14 09:18:19;;;;;;;6.60;1.20;;;17.80;99.90;;;;;;5063711;28;20052;-70
2022/09/14 09:21:02;;;;;;;7.93;1.05;;;17.80;99.90;;;;;;5065585;28;20135;-70
2022/09/14 09:23:29;;;;;;;10.30;1.30;;;17.80;99.90;;;;;;5063809;28;20041;-70
2022/09/14 09:26:08;;;;;;;6.82;1.20;;;17.80;99.90;;;;;;5065586;28;20048;-70
2022/09/14 09:28:40;;;;;;;7.15;1.02;;;17.80;99.90;;;;;;5059461;28;20202;-70
2022/09/14 09:31:08;;;;;;;6.47;1.60;;;17.90;99.90;;;;;;5060366;28;20109;-69
2022/09/14 09:33:34;;;;;;;6.07;1.42;;;17.90;99.90;;;;;;5045021;28;20040;-70
2022/09/14 09:36:00;;;;;;;6.38;1.00;;;17.90;99.90;;;;;;5060479;28;20044;-69
2022/09/14 09:38:28;;;;;;;9.88;1.10;;;17.90;99.90;;;;;;5062263;28;20051;-70
2022/09/14 09:41:00;;;;;;;6.35;1.00;;;18.00;99.90;;;;;;5061922;28;20271;-70
2022/09/14 09:43:26;;;;;;;8.23;1.38;;;18.00;99.90;;;;;;5062604;28;20041;-69
2022/09/14 09:45:52;;;;;;;8.85;1.42;;;18.00;99.90;;;;;;5061594;28;20413;-70
2022/09/14 09:48:21;;;;;;;5.28;0.93;;;18.00;99.90;;;;;;5063117;28;20041;-70
2022/09/14 09:50:57;;;;;;;4.18;1.23;;;18.00;99.90;;;;;;5061203;28;20048;-70
2022/09/14 09:53:23;;;;;;;10.68;1.17;;;18.00;99.90;;;;;;5062854;28;20120;-70
2022/09/14 09:55:50;;;;;;;9.07;1.45;;;18.00;99.90;;;;;;5043138;28;20044;-70
2022/09/14 09:58:35;;;;;;;5.82;1.23;;;18.10;99.90;;;;;;5062237;28;20048;-70
2022/09/14 10:01:16;;;;;;;5.25;1.02;;;18.10;99.90;;;;;;5060430;28;20044;-70
2022/09/14 10:03:50;;;;;;;6.13;1.15;;;18.10;99.90;;;;;;5058526;28;20082;-70
2022/09/14 10:06:16;;;;;;;4.88;0.82;;;18.20;99.90;;;;;;5061218;28;20128;-70
2022/09/14 10:08:46;;;;;;;5.80;1.00;;;18.20;99.90;;;;;;5041757;28;20128;-71
2022/09/14 10:11:30;;;;;;;9.83;1.40;;;18.20;99.90;;;;;;5059541;28;20052;-70
2022/09/14 10:13:57;;;;;;;6.80;1.40;;;18.30;99.90;;;;;;5061836;28;20041;-70
2022/09/14 10:16:28;;;;;;;6.57;1.65;;;18.30;99.90;;;;;;5061282;28;20093;-70
2022/09/14 10:18:54;;;;;;;;;;;18.30;99.90;;;;;;5043033;28;20401;-70
2022/09/14 10:21:21;;;;;;;6.45;1.00;;;18.30;99.90;;;;;;5043946;28;19929;-70
2022/09/14 10:24:14;;;;;;;4.82;1.02;;;18.30;99.90;;;;;;5061023;28;20051;-71
2022/09/14 10:26:39;;;;;;;6.68;0.82;;;18.30;99.90;;;;;;5045122;28;20068;-70
2022/09/14 10:29:22;;;;;;;8.23;1.33;;;18.40;99.90;;;;;;5044963;28;20076;-70
2022/09/14 10:31:49;;;;;;;6.63;1.25;;;18.40;99.90;;;;;;5057981;28;20037;-71
2022/09/14 10:34:19;;;;;;;8.40;1.45;;;18.40;99.90;;;;;;5057841;28;20052;-70
2022/09/14 10:36:54;;;;;;;8.40;1.13;;;18.50;99.90;;;;;;5056456;28;20045;-70
2022/09/14 10:39:37;;;;;;;8.75;0.90;;;18.50;99.90;;;;;;5059209;28;20049;-70
2022/09/14 10:42:24;;;;;;;7.13;1.38;;;18.50;99.90;;;;;;5052912;28;20344;-70
2022/09/14 10:45:10;;;;;;;5.75;1.30;;;18.50;99.90;;;;;;5059838;28;20093;-71
2022/09/14 10:48:01;;;;;;;6.97;1.30;;;18.50;99.90;;;;;;5061990;28;20725;-70
2022/09/14 10:50:32;;;;;;;;;;;18.50;99.90;;;;;;5054790;28;20095;-70
2022/09/14 10:53:17;;;;;;;7.82;1.00;;;18.50;99.90;;;;;;5059122;28;19970;-70
2022/09/14 10:56:00;;;;;;;8.70;1.75;;;18.50;99.90;;;;;;5057343;28;20052;-71
2022/09/14 10:58:41;;;;;;;11.95;1.48;;;18.50;99.90;;;;;;5061750;28;20053;-71
2022/09/14 11:01:30;;;;;;;6.25;0.98;;;18.60;99.90;;;;;;5059353;28;20045;-70
2022/09/14 11:04:16;;;;;;;9.15;1.58;;;18.60;99.90;;;;;;5044485;28;20781;-70
2022/09/14 11:07:06;;;;;;;9.23;1.35;;;18.60;99.90;;;;;;5055718;28;20132;-70
2022/09/14 11:09:52;;;;;;;7.75;1.05;;;18.60;99.90;;;;;;5057488;28;20401;-70
2022/09/14 11:12:24;;;;;;;6.90;1.05;;;18.70;99.90;;;;;;5048392;28;20474;-71
2022/09/14 11:15:19;;;;;;;11.98;1.50;;;18.70;99.90;;;;;;5065521;28;20048;-70
2022/09/14 11:18:13;;;;;;;7.80;1.20;;;18.80;99.90;;;;;;5066867;28;20459;-70
2022/09/14 11:21:08;;;;;;;4.80;1.10;;;18.90;99.90;;;;;;5058837;28;20106;-70
2022/09/14 11:23:54;;;;;;;9.32;1.02;;;18.90;99.90;;;;;;5067553;28;20151;-70
2022/09/14 11:26:37;;;;;;;7.38;1.00;;;18.90;99.90;;;;;;5060579;28;20028;-71
2022/09/14 11:29:36;;;;;;;6.70;1.33;;;18.90;99.90;;;;;;5064697;28;20159;-70
2022/09/14 11:32:05;;;;;;;10.55;1.00;;;18.90;99.90;;;;;;5058367;28;20511;-70
2022/09/14 11:34:56;;;;;;;8.10;1.02;;;19.00;99.90;;;;;;5060268;28;20041;-71
2022/09/14 11:38:09;;;;;;;6.93;1.30;;;19.00;99.90;;;;;;5070325;28;20454;-71
2022/09/14 11:40:49;;;;;;;7.88;1.10;;;19.10;99.90;;;;;;5060639;28;20037;-70
2022/09/14 11:43:44;;;;;;;6.38;1.65;;;19.20;99.90;;;;;;5061214;28;20132;-70
2022/09/14 11:46:14;;;;;;;8.00;1.27;;;19.20;99.90;;;;;;5078656;28;20048;-71
2022/09/14 11:49:07;;;;;;;8.07;1.05;;;19.30;99.90;;;;;;5063217;28;20041;-71
2022/09/14 11:51:36;;;;;;;5.50;1.20;;;19.40;99.90;;;;;;5082653;28;20035;-71
2022/09/14 11:54:02;;;;;;;4.55;1.10;;;19.50;99.90;;;;;;5059685;28;20051;-71
2022/09/14 11:56:31;;;;;;;10.50;1.63;;;19.50;99.90;;;;;;5061384;28;20048;-70
2022/09/14 11:58:59;;;;;;;5.57;0.98;;;19.60;99.90;;;;;;5056504;28;20036;-71
2022/09/14 12:01:27;;;;;;;8.10;1.25;;;19.60;99.90;;;;;;5064464;28;20045;-71
2022/09/14 12:04:07;;;;;;;9.73;1.35;;;19.60;99.90;;;;;;5064232;28;20072;-70
2022/09/14 12:06:35;;;;;;;6.50;1.15;;;19.60;99.90;;;;;;5064167;28;20040;-71
2022/09/14 12:09:19;;;;;;;6.85;1.00;;;19.60;99.90;;;;;;5064417;28;20041;-70
2022/09/14 12:11:50;;;;;;;7.97;1.35;;;19.70;99.90;;;;;;5065139;28;20483;-70
2022/09/14 12:14:30;;;;;;;5.45;0.77;;;19.70;99.90;;;;;;5061474;28;20058;-70
2022/09/14 12:17:04;;;;;;;6.30;1.02;;;19.70;99.90;;;;;;5060471;28;20067;-71
2022/09/14 12:19:30;;;;;;;7.03;1.15;;;19.80;99.90;;;;;;5066750;28;20056;-72
2022/09/14 12:22:16;;;;;;;5.68;1.10;;;19.80;99.90;;;;;;5068490;28;20581;-70
2022/09/14 12:24:42;;;;;;;6.63;1.42;;;19.80;99.90;;;;;;5064547;28;20052;-70
2022/09/14 12:27:21;;;;;;;7.00;1.35;;;19.80;99.90;;;;;;5066608;28;20520;-70
2022/09/14 12:29:46;;;;;;;8.55;1.13;;;19.70;99.90;;;;;;5066314;28;20099;-70
2022/09/14 12:32:42;;;;;;;6.60;1.60;;;19.60;99.90;;;;;;5067541;28;20481;-69
2022/09/14 12:35:37;;;;;;;8.20;1.27;;;19.50;99.90;;;;;;5063399;28;20859;-70
2022/09/14 12:38:28;;;;;;;6.82;1.77;;;19.40;99.90;;;;;;5057469;28;20045;-70
2022/09/14 12:40:56;;;;;;;7.93;1.20;;;19.40;99.90;;;;;;5067250;28;20124;-70
2022/09/14 12:43:33;;;;;;;5.50;1.02;;;19.50;99.90;;;;;;5067584;28;20393;-69
2022/09/14 12:46:09;;;;;;;7.05;1.25;;;19.50;99.90;;;;;;5071036;28;20046;-70
2022/09/14 12:48:47;;;;;;;4.70;1.00;;;19.50;99.90;;;;;;5057518;28;20044;-71
2022/09/14 12:54:19;;;;;;;6.43;1.52;;;19.60;99.90;;;;;;5056626;28;20409;-70
2022/09/14 12:56:57;;;;;;;;;;;19.50;99.90;;;;;;5061589;28;20052;-70
2022/09/14 12:59:29;;;;;;;7.80;1.27;;;19.50;99.90;;;;;;5061865;28;19924;-70
2022/09/14 13:02:01;;;;;;;10.25;1.23;;;19.50;99.90;;;;;;5064370;28;20261;-70
2022/09/14 13:04:32;;;;;;;6.68;1.30;;;19.50;99.90;;;;;;5066459;28;20120;-70
2022/09/14 13:07:03;;;;;;;4.57;1.00;;;19.50;99.90;;;;;;5065005;28;20045;-70
2022/09/14 13:09:31;;;;;;;4.63;1.02;;;19.50;99.90;;;;;;5056437;28;20048;-71
2022/09/14 13:12:08;;;;;;;5.38;1.10;;;19.50;99.90;;;;;;5060782;28;20075;-70